createdAt,value
2022-07-28T00:00:08.297Z,1013.18
2022-07-28T00:01:08.132Z,1013.14
2022-07-28T00:02:08.418Z,1013.19
2022-07-28T00:03:08.755Z,1013.19
2022-07-28T00:04:08.882Z,1013.22
2022-07-28T00:05:09.120Z,1013.15
2022-07-28T00:06:09.359Z,1013.17
2022-07-28T00:07:09.603Z,1013.13
2022-07-28T00:08:09.840Z,1013.16
2022-07-28T00:09:10.081Z,1013.18
2022-07-28T00:10:10.319Z,1013.19
2022-07-28T00:11:10.569Z,1013.18
2022-07-28T00:12:10.826Z,1013.17
2022-07-28T00:13:11.069Z,1013.19
2022-07-28T00:14:11.641Z,1013.19
2022-07-28T00:15:11.503Z,1013.16
2022-07-28T00:16:11.787Z,1013.18
2022-07-28T00:17:12.033Z,1013.16
2022-07-28T00:18:12.274Z,1013.20
2022-07-28T00:19:12.499Z,1013.21
2022-07-28T00:20:12.728Z,1013.18
2022-07-28T00:21:12.965Z,1013.16
2022-07-28T00:22:13.212Z,1013.17
2022-07-28T00:23:13.445Z,1013.18
2022-07-28T00:24:14.077Z,1013.20
2022-07-28T00:25:13.911Z,1013.18
2022-07-28T00:26:14.146Z,1013.16
2022-07-28T00:27:14.406Z,1013.18
2022-07-28T00:28:14.644Z,1013.16
2022-07-28T00:29:14.925Z,1013.16
2022-07-28T00:30:15.169Z,1013.19
2022-07-28T00:31:15.520Z,1013.17
2022-07-28T00:32:15.724Z,1013.21
2022-07-28T00:33:15.967Z,1013.22
2022-07-28T00:34:16.569Z,1013.26
2022-07-28T00:35:16.478Z,1013.25
2022-07-28T00:36:17.654Z,1013.23
2022-07-28T00:37:16.906Z,1013.27
2022-07-28T00:38:17.157Z,1013.24
2022-07-28T00:39:17.385Z,1013.21
2022-07-28T00:40:17.617Z,1013.23
2022-07-28T00:41:17.845Z,1013.22
2022-07-28T00:42:18.100Z,1013.21
2022-07-28T00:43:18.335Z,1013.24
2022-07-28T00:44:18.581Z,1013.24
2022-07-28T00:45:18.815Z,1013.24
2022-07-28T00:46:19.114Z,1013.22
2022-07-28T00:47:19.304Z,1013.22
2022-07-28T00:48:19.530Z,1013.23
2022-07-28T00:49:19.837Z,1013.23
2022-07-28T00:50:19.975Z,1013.18
2022-07-28T00:51:20.211Z,1013.20
2022-07-28T00:52:20.468Z,1013.21
2022-07-28T00:53:20.703Z,1013.19
2022-07-28T00:54:20.943Z,1013.16
2022-07-28T00:55:21.188Z,1013.17
2022-07-28T00:56:21.442Z,1013.19
2022-07-28T00:57:21.677Z,1013.17
2022-07-28T00:58:21.933Z,1013.17
2022-07-28T00:59:22.178Z,1013.17
2022-07-28T01:00:22.419Z,1013.19
2022-07-28T01:01:22.760Z,1013.16
2022-07-28T01:02:23.023Z,1013.17
2022-07-28T01:03:23.203Z,1013.19
2022-07-28T01:04:23.442Z,1013.20
2022-07-28T01:05:44.170Z,1013.22
2022-07-28T01:06:24.900Z,1013.20
2022-07-28T01:07:24.150Z,1013.20
2022-07-28T01:08:24.401Z,1013.23
2022-07-28T01:09:24.659Z,1013.25
2022-07-28T01:10:24.897Z,1013.21
2022-07-28T01:11:25.149Z,1013.24
2022-07-28T01:12:25.394Z,1013.23
2022-07-28T01:13:27.867Z,1013.27
2022-07-28T01:14:25.876Z,1013.23
2022-07-28T01:15:26.128Z,1013.22
2022-07-28T01:16:26.474Z,1013.21
2022-07-28T01:17:26.652Z,1013.21
2022-07-28T01:18:26.897Z,1013.20
2022-07-28T01:19:27.149Z,1013.22
2022-07-28T01:20:27.390Z,1013.20
2022-07-28T01:21:27.639Z,1013.20
2022-07-28T01:22:27.894Z,1013.20
2022-07-28T01:23:28.231Z,1013.21
2022-07-28T01:24:28.391Z,1013.20
2022-07-28T01:25:28.650Z,1013.22
2022-07-28T01:26:28.890Z,1013.20
2022-07-28T01:27:29.145Z,1013.24
2022-07-28T01:28:29.376Z,1013.25
2022-07-28T01:29:29.626Z,1013.26
2022-07-28T01:30:29.868Z,1013.24
2022-07-28T01:31:30.147Z,1013.24
2022-07-28T01:32:30.417Z,1013.23
2022-07-28T01:33:30.657Z,1013.25
2022-07-28T01:34:30.891Z,1013.28
2022-07-28T01:35:31.137Z,1013.25
2022-07-28T01:36:31.369Z,1013.26
2022-07-28T01:37:31.630Z,1013.26
2022-07-28T01:38:31.871Z,1013.24
2022-07-28T01:39:32.105Z,1013.20
2022-07-28T01:40:32.346Z,1013.21
2022-07-28T01:41:32.583Z,1013.23
2022-07-28T01:42:32.839Z,1013.23
2022-07-28T01:43:33.080Z,1013.27
2022-07-28T01:44:33.315Z,1013.25
2022-07-28T01:45:33.567Z,1013.26
2022-07-28T01:46:33.857Z,1013.29
2022-07-28T01:47:34.151Z,1013.26
2022-07-28T01:48:34.447Z,1013.25
2022-07-28T01:49:34.613Z,1013.27
2022-07-28T01:50:34.855Z,1013.28
2022-07-28T01:51:35.099Z,1013.25
2022-07-28T01:52:35.371Z,1013.27
2022-07-28T01:53:38.177Z,1013.23
2022-07-28T01:54:35.897Z,1013.25
2022-07-28T01:55:36.143Z,1013.25
2022-07-28T01:56:36.377Z,1013.22
2022-07-28T01:57:36.635Z,1013.22
2022-07-28T01:58:36.878Z,1013.21
2022-07-28T01:59:37.118Z,1013.19
2022-07-28T02:00:37.371Z,1013.21
2022-07-28T02:01:37.678Z,1013.20
2022-07-28T02:02:37.923Z,1013.19
2022-07-28T02:03:38.172Z,1013.20
2022-07-28T02:04:38.468Z,1013.19
2022-07-28T02:05:38.702Z,1013.17
2022-07-28T02:06:38.946Z,1013.16
2022-07-28T02:07:39.201Z,1013.21
2022-07-28T02:08:39.449Z,1013.19
2022-07-28T02:09:39.691Z,1013.24
2022-07-28T02:10:39.951Z,1013.19
2022-07-28T02:11:40.209Z,1013.19
2022-07-28T02:12:40.471Z,1013.19
2022-07-28T02:13:40.720Z,1013.19
2022-07-28T02:14:40.963Z,1013.18
2022-07-28T02:15:41.246Z,1013.20
2022-07-28T02:16:41.511Z,1013.18
2022-07-28T02:17:41.764Z,1013.20
2022-07-28T02:18:42.010Z,1013.20
2022-07-28T02:19:42.250Z,1013.21
2022-07-28T02:20:42.484Z,1013.25
2022-07-28T02:21:42.726Z,1013.21
2022-07-28T02:22:42.987Z,1013.23
2022-07-28T02:23:43.232Z,1013.22
2022-07-28T02:24:43.471Z,1013.22
2022-07-28T02:25:43.714Z,1013.24
2022-07-28T02:26:43.957Z,1013.23
2022-07-28T02:27:44.219Z,1013.23
2022-07-28T02:28:44.466Z,1013.24
2022-07-28T02:29:52.167Z,1013.24
2022-07-28T02:30:46.042Z,1013.26
2022-07-28T02:31:45.267Z,1013.29
2022-07-28T02:32:45.533Z,1013.30
2022-07-28T02:33:58.649Z,1013.28
2022-07-28T02:34:47.080Z,1013.32
2022-07-28T02:35:46.340Z,1013.30
2022-07-28T02:36:46.601Z,1013.26
2022-07-28T02:37:46.858Z,1013.28
2022-07-28T02:38:47.115Z,1013.30
2022-07-28T02:39:59.974Z,1013.31
2022-07-28T02:40:48.582Z,1013.29
2022-07-28T02:41:47.834Z,1013.31
2022-07-28T02:42:48.102Z,1013.33
2022-07-28T02:43:49.695Z,1013.36
2022-07-28T02:44:48.621Z,1013.33
2022-07-28T02:45:55.827Z,1013.34
2022-07-28T02:46:49.133Z,1013.35
2022-07-28T02:47:49.410Z,1013.34
2022-07-28T02:48:49.711Z,1013.34
2022-07-28T02:49:49.984Z,1013.33
2022-07-28T02:50:50.233Z,1013.35
2022-07-28T02:51:50.483Z,1013.33
2022-07-28T02:52:50.748Z,1013.34
2022-07-28T02:53:50.998Z,1013.37
2022-07-28T02:54:51.243Z,1013.38
2022-07-28T02:55:51.505Z,1013.39
2022-07-28T02:56:53.729Z,1013.38
2022-07-28T02:57:56.349Z,1013.39
2022-07-28T02:58:52.347Z,1013.38
2022-07-28T02:59:52.604Z,1013.40
2022-07-28T03:00:52.847Z,1013.38
2022-07-28T03:01:53.170Z,1013.39
2022-07-28T03:02:53.315Z,1013.42
2022-07-28T03:03:55.440Z,1013.43
2022-07-28T03:04:53.952Z,1013.43
2022-07-28T03:05:54.082Z,1013.44
2022-07-28T03:06:54.344Z,1013.43
2022-07-28T03:07:57.556Z,1013.47
2022-07-28T03:08:54.902Z,1013.44
2022-07-28T03:09:55.151Z,1013.44
2022-07-28T03:10:55.401Z,1013.45
2022-07-28T03:11:55.659Z,1013.44
2022-07-28T03:12:55.911Z,1013.45
2022-07-28T03:13:56.169Z,1013.48
2022-07-28T03:14:56.421Z,1013.47
2022-07-28T03:15:56.681Z,1013.49
2022-07-28T03:16:56.981Z,1013.51
2022-07-28T03:17:57.205Z,1013.50
2022-07-28T03:19:06.208Z,1013.54
2022-07-28T03:20:00.455Z,1013.54
2022-07-28T03:20:59.677Z,1013.56
2022-07-28T03:21:58.256Z,1013.58
2022-07-28T03:22:58.582Z,1013.60
2022-07-28T03:23:58.805Z,1013.61
2022-07-28T03:24:59.061Z,1013.63
2022-07-28T03:25:59.266Z,1013.63
2022-07-28T03:26:59.520Z,1013.67
2022-07-28T03:27:59.793Z,1013.67
2022-07-28T03:29:00.057Z,1013.69
2022-07-28T03:30:03.580Z,1013.67
2022-07-28T03:31:00.622Z,1013.69
2022-07-28T03:32:00.808Z,1013.72
2022-07-28T03:33:01.086Z,1013.70
2022-07-28T03:34:01.332Z,1013.71
2022-07-28T03:35:01.577Z,1013.77
2022-07-28T03:36:01.823Z,1013.72
2022-07-28T03:37:02.074Z,1013.72
2022-07-28T03:38:02.343Z,1013.72
2022-07-28T03:39:02.581Z,1013.69
2022-07-28T03:40:02.898Z,1013.69
2022-07-28T03:41:03.110Z,1013.68
2022-07-28T03:42:03.357Z,1013.62
2022-07-28T03:43:07.040Z,1013.64
2022-07-28T03:44:03.822Z,1013.67
2022-07-28T03:45:04.094Z,1013.70
2022-07-28T03:46:05.223Z,1013.70
2022-07-28T03:47:04.629Z,1013.68
2022-07-28T03:48:04.885Z,1013.68
2022-07-28T03:49:05.182Z,1013.67
2022-07-28T03:50:05.382Z,1013.70
2022-07-28T03:51:05.611Z,1013.69
2022-07-28T03:52:05.854Z,1013.68
2022-07-28T03:53:06.105Z,1013.70
2022-07-28T03:54:06.360Z,1013.72
2022-07-28T03:55:06.610Z,1013.73
2022-07-28T03:56:06.858Z,1013.76
2022-07-28T03:57:14.061Z,1013.76
2022-07-28T03:58:07.385Z,1013.76
2022-07-28T03:59:07.676Z,1013.78
2022-07-28T04:00:09.872Z,1013.83
2022-07-28T04:01:08.250Z,1013.82
2022-07-28T04:02:08.527Z,1013.81
2022-07-28T04:03:35.773Z,1013.83
2022-07-28T04:04:10.099Z,1013.86
2022-07-28T04:05:09.341Z,1013.81
2022-07-28T04:06:09.587Z,1013.83
2022-07-28T04:07:09.836Z,1013.84
2022-07-28T04:08:10.085Z,1013.84
2022-07-28T04:09:10.352Z,1013.84
2022-07-28T04:10:10.598Z,1013.83
2022-07-28T04:11:10.848Z,1013.86
2022-07-28T04:12:11.085Z,1013.87
2022-07-28T04:13:11.340Z,1013.92
2022-07-28T04:14:16.476Z,1013.91
2022-07-28T04:15:12.790Z,1013.90
2022-07-28T04:16:12.095Z,1013.89
2022-07-28T04:17:12.291Z,1013.90
2022-07-28T04:18:12.534Z,1013.90
2022-07-28T04:19:12.800Z,1013.88
2022-07-28T04:20:13.042Z,1013.89
2022-07-28T04:21:13.287Z,1013.90
2022-07-28T04:22:13.551Z,1013.93
2022-07-28T04:23:13.795Z,1013.91
2022-07-28T04:24:14.500Z,1013.92
2022-07-28T04:25:14.246Z,1013.90
2022-07-28T04:26:14.495Z,1013.93
2022-07-28T04:27:14.743Z,1013.90
2022-07-28T04:28:14.986Z,1013.89
2022-07-28T04:29:15.249Z,1013.85
2022-07-28T04:30:16.454Z,1013.84
2022-07-28T04:31:15.726Z,1013.83
2022-07-28T04:32:15.951Z,1013.86
2022-07-28T04:33:16.195Z,1013.88
2022-07-28T04:34:16.982Z,1013.89
2022-07-28T04:35:17.704Z,1013.90
2022-07-28T04:36:17.048Z,1013.94
2022-07-28T04:37:17.298Z,1013.91
2022-07-28T04:38:17.537Z,1013.90
2022-07-28T04:39:17.801Z,1013.91
2022-07-28T04:40:18.054Z,1013.92
2022-07-28T04:41:18.292Z,1013.89
2022-07-28T04:42:18.533Z,1013.91
2022-07-28T04:43:18.773Z,1013.94
2022-07-28T04:44:19.032Z,1013.91
2022-07-28T04:45:19.275Z,1013.94
2022-07-28T04:46:19.559Z,1013.95
2022-07-28T04:47:19.798Z,1013.94
2022-07-28T04:48:20.039Z,1013.92
2022-07-28T04:49:20.338Z,1013.91
2022-07-28T04:50:20.479Z,1013.96
2022-07-28T04:51:20.733Z,1013.96
2022-07-28T04:52:20.960Z,1013.94
2022-07-28T04:53:21.207Z,1014.01
2022-07-28T04:54:26.344Z,1014.00
2022-07-28T04:55:22.677Z,1014.00
2022-07-28T04:56:21.911Z,1014.01
2022-07-28T04:57:22.149Z,1014.01
2022-07-28T04:58:22.611Z,1014.00
2022-07-28T04:59:22.673Z,1014.00
2022-07-28T05:00:23.190Z,1013.97
2022-07-28T05:01:23.118Z,1013.98
2022-07-28T05:02:23.359Z,1013.96
2022-07-28T05:03:23.606Z,1013.94
2022-07-28T05:04:23.847Z,1013.95
2022-07-28T05:05:24.090Z,1013.94
2022-07-28T05:06:24.325Z,1013.91
2022-07-28T05:07:24.566Z,1013.93
2022-07-28T05:08:25.713Z,1013.92
2022-07-28T05:09:25.043Z,1013.96
2022-07-28T05:10:25.283Z,1013.96
2022-07-28T05:11:25.524Z,1013.96
2022-07-28T05:12:25.759Z,1013.97
2022-07-28T05:13:30.357Z,1013.96
2022-07-28T05:14:27.323Z,1013.97
2022-07-28T05:15:26.555Z,1013.97
2022-07-28T05:16:26.821Z,1013.99
2022-07-28T05:17:27.036Z,1013.94
2022-07-28T05:18:27.275Z,1013.96
2022-07-28T05:19:27.538Z,1013.95
2022-07-28T05:20:27.772Z,1013.90
2022-07-28T05:21:28.007Z,1013.90
2022-07-28T05:22:28.251Z,1013.92
2022-07-28T05:23:28.485Z,1013.92
2022-07-28T05:24:28.735Z,1013.95
2022-07-28T05:25:28.970Z,1013.93
2022-07-28T05:26:29.200Z,1013.94
2022-07-28T05:27:29.436Z,1013.93
2022-07-28T05:28:29.674Z,1013.98
2022-07-28T05:29:35.147Z,1013.99
2022-07-28T05:30:31.108Z,1013.97
2022-07-28T05:31:30.422Z,1014.01
2022-07-28T05:32:30.539Z,1014.02
2022-07-28T05:33:31.980Z,1014.04
2022-07-28T05:34:31.072Z,1014.04
2022-07-28T05:35:31.303Z,1014.11
2022-07-28T05:36:31.532Z,1014.10
2022-07-28T05:37:31.765Z,1014.10
2022-07-28T05:38:31.987Z,1014.08
2022-07-28T05:39:32.236Z,1014.09
2022-07-28T05:40:32.456Z,1014.05
2022-07-28T05:41:32.674Z,1014.08
2022-07-28T05:42:32.894Z,1014.08
2022-07-28T05:43:33.118Z,1014.12
2022-07-28T05:44:37.877Z,1014.09
2022-07-28T05:45:34.618Z,1014.10
2022-07-28T05:46:33.718Z,1014.11
2022-07-28T05:47:33.942Z,1014.11
2022-07-28T05:48:34.208Z,1014.16
2022-07-28T05:49:34.432Z,1014.18
2022-07-28T05:50:34.647Z,1014.20
2022-07-28T05:51:38.398Z,1014.18
2022-07-28T05:52:36.043Z,1014.22
2022-07-28T05:53:35.263Z,1014.21
2022-07-28T05:54:35.508Z,1014.22
2022-07-28T05:55:35.740Z,1014.24
2022-07-28T05:56:36.920Z,1014.26
2022-07-28T05:57:36.140Z,1014.28
2022-07-28T05:58:36.370Z,1014.25
2022-07-28T05:59:36.608Z,1014.27
2022-07-28T06:00:36.764Z,1014.30
2022-07-28T06:01:37.034Z,1014.26
2022-07-28T06:02:37.329Z,1014.25
2022-07-28T06:03:42.036Z,1014.27
2022-07-28T06:04:38.799Z,1014.25
2022-07-28T06:06:11.547Z,1014.28
2022-07-28T06:06:39.203Z,1014.27
2022-07-28T06:07:43.659Z,1014.22
2022-07-28T06:08:42.586Z,1014.26
2022-07-28T06:09:43.316Z,1014.25
2022-07-28T06:10:39.959Z,1014.21
2022-07-28T06:11:39.176Z,1014.24
2022-07-28T06:12:39.411Z,1014.25
2022-07-28T06:13:39.636Z,1014.28
2022-07-28T06:14:39.856Z,1014.28
2022-07-28T06:15:40.084Z,1014.24
2022-07-28T06:16:40.330Z,1014.22
2022-07-28T06:17:40.584Z,1014.22
2022-07-28T06:18:40.810Z,1014.24
2022-07-28T06:19:41.020Z,1014.28
2022-07-28T06:20:41.241Z,1014.24
2022-07-28T06:21:41.527Z,1014.28
2022-07-28T06:22:41.728Z,1014.24
2022-07-28T06:23:41.940Z,1014.27
2022-07-28T06:24:42.152Z,1014.29
2022-07-28T06:25:42.376Z,1014.29
2022-07-28T06:26:44.945Z,1014.31
2022-07-28T06:27:42.760Z,1014.27
2022-07-28T06:28:42.964Z,1014.33
2022-07-28T06:29:43.172Z,1014.32
2022-07-28T06:30:43.391Z,1014.32
2022-07-28T06:31:43.630Z,1014.32
2022-07-28T06:32:43.844Z,1014.39
2022-07-28T06:33:44.043Z,1014.38
2022-07-28T06:34:44.251Z,1014.32
2022-07-28T06:35:50.034Z,1014.26
2022-07-28T06:36:45.651Z,1014.31
2022-07-28T06:37:44.863Z,1014.33
2022-07-28T06:38:45.052Z,1014.29
2022-07-28T06:39:45.255Z,1014.29
2022-07-28T06:40:45.454Z,1014.28
2022-07-28T06:41:45.635Z,1014.31
2022-07-28T06:42:45.826Z,1014.24
2022-07-28T06:43:46.036Z,1014.28
2022-07-28T06:44:58.245Z,1014.26
2022-07-28T06:45:47.473Z,1014.30
2022-07-28T06:46:46.704Z,1014.23
2022-07-28T06:47:47.939Z,1014.26
2022-07-28T06:48:47.208Z,1014.24
2022-07-28T06:49:47.357Z,1014.23
2022-07-28T06:50:47.547Z,1014.29
2022-07-28T06:51:47.728Z,1014.24
2022-07-28T06:52:47.915Z,1014.27
2022-07-28T06:53:48.118Z,1014.26
2022-07-28T06:54:48.722Z,1014.23
2022-07-28T06:55:49.986Z,1014.25
2022-07-28T06:56:49.426Z,1014.24
2022-07-28T06:57:48.812Z,1014.27
2022-07-28T06:58:48.999Z,1014.22
2022-07-28T06:59:49.170Z,1014.23
2022-07-28T07:00:49.418Z,1014.24
2022-07-28T07:01:49.568Z,1014.25
2022-07-28T07:02:49.744Z,1014.24
2022-07-28T07:03:49.951Z,1014.20
2022-07-28T07:04:50.117Z,1014.21
2022-07-28T07:05:52.259Z,1014.21
2022-07-28T07:06:50.442Z,1014.22
2022-07-28T07:07:50.634Z,1014.19
2022-07-28T07:08:50.802Z,1014.20
2022-07-28T07:09:50.966Z,1014.24
2022-07-28T07:10:51.141Z,1014.23
2022-07-28T07:11:51.327Z,1014.25
2022-07-28T07:12:51.478Z,1014.25
2022-07-28T07:13:51.648Z,1014.23
2022-07-28T07:14:51.815Z,1014.22
2022-07-28T07:15:52.063Z,1014.23
2022-07-28T07:16:52.208Z,1014.21
2022-07-28T07:17:52.387Z,1014.20
2022-07-28T07:18:52.553Z,1014.24
2022-07-28T07:19:52.727Z,1014.24
2022-07-28T07:20:52.918Z,1014.23
2022-07-28T07:21:53.117Z,1014.21
2022-07-28T07:22:53.284Z,1014.21
2022-07-28T07:23:53.446Z,1014.16
2022-07-28T07:24:56.814Z,1014.19
2022-07-28T07:25:53.838Z,1014.16
2022-07-28T07:26:54.008Z,1014.19
2022-07-28T07:27:54.181Z,1014.15
2022-07-28T07:28:54.347Z,1014.16
2022-07-28T07:29:54.511Z,1014.22
2022-07-28T07:30:54.687Z,1014.21
2022-07-28T07:31:54.918Z,1014.19
2022-07-28T07:32:55.072Z,1014.16
2022-07-28T07:33:55.218Z,1014.19
2022-07-28T07:34:55.384Z,1014.18
2022-07-28T07:35:55.575Z,1014.19
2022-07-28T07:36:55.723Z,1014.18
2022-07-28T07:37:55.896Z,1014.19
2022-07-28T07:38:56.051Z,1014.21
2022-07-28T07:39:56.208Z,1014.18
2022-07-28T07:40:56.391Z,1014.18
2022-07-28T07:41:56.539Z,1014.19
2022-07-28T07:42:56.639Z,1014.20
2022-07-28T07:43:56.824Z,1014.22
2022-07-28T07:44:56.978Z,1014.23
2022-07-28T07:45:57.159Z,1014.21
2022-07-28T07:46:57.365Z,1014.14
2022-07-28T07:47:57.420Z,1014.12
2022-07-28T07:48:57.630Z,1014.12
2022-07-28T07:49:57.672Z,1014.12
2022-07-28T07:50:57.827Z,1014.16
2022-07-28T07:51:57.972Z,1014.20
2022-07-28T07:52:58.138Z,1014.16
2022-07-28T07:53:58.270Z,1014.21
2022-07-28T07:54:58.414Z,1014.22
2022-07-28T07:55:58.560Z,1014.19
2022-07-28T07:56:58.696Z,1014.22
2022-07-28T07:57:58.832Z,1014.21
2022-07-28T07:58:58.958Z,1014.23
2022-07-28T07:59:59.103Z,1014.26
2022-07-28T08:00:59.263Z,1014.25
2022-07-28T08:01:59.445Z,1014.23
2022-07-28T08:02:59.484Z,1014.20
2022-07-28T08:03:59.711Z,1014.23
2022-07-28T08:04:59.740Z,1014.20
2022-07-28T08:05:59.800Z,1014.17
2022-07-28T08:06:59.938Z,1014.17
2022-07-28T08:08:00.071Z,1014.24
2022-07-28T08:09:00.210Z,1014.26
2022-07-28T08:10:00.353Z,1014.14
2022-07-28T08:11:00.508Z,1014.20
2022-07-28T08:12:00.656Z,1014.23
2022-07-28T08:13:00.810Z,1014.22
2022-07-28T08:14:00.960Z,1014.14
2022-07-28T08:15:01.076Z,1014.13
2022-07-28T08:16:01.296Z,1014.22
2022-07-28T08:17:01.339Z,1014.19
2022-07-28T08:18:01.467Z,1014.10
2022-07-28T08:19:01.620Z,1014.15
2022-07-28T08:20:01.762Z,1014.17
2022-07-28T08:21:01.919Z,1014.19
2022-07-28T08:22:02.053Z,1014.17
2022-07-28T08:23:02.191Z,1014.19
2022-07-28T08:24:02.339Z,1014.19
2022-07-28T08:25:02.464Z,1014.19
2022-07-28T08:26:02.605Z,1014.18
2022-07-28T08:27:02.750Z,1014.16
2022-07-28T08:28:05.401Z,1014.18
2022-07-28T08:29:02.970Z,1014.20
2022-07-28T08:30:03.123Z,1014.17
2022-07-28T08:31:03.308Z,1014.12
2022-07-28T08:32:03.320Z,1014.13
2022-07-28T08:33:03.449Z,1014.18
2022-07-28T08:34:03.573Z,1014.16
2022-07-28T08:35:30.278Z,1014.17
2022-07-28T08:36:04.784Z,1014.12
2022-07-28T08:37:03.902Z,1014.19
2022-07-28T08:38:04.032Z,1014.17
2022-07-28T08:39:04.173Z,1014.19
2022-07-28T08:40:15.921Z,1014.22
2022-07-28T08:41:04.428Z,1014.26
2022-07-28T08:42:04.551Z,1014.25
2022-07-28T08:43:04.672Z,1014.31
2022-07-28T08:44:04.798Z,1014.25
2022-07-28T08:45:04.936Z,1014.28
2022-07-28T08:46:05.115Z,1014.34
2022-07-28T08:47:05.239Z,1014.31
2022-07-28T08:48:08.870Z,1014.36
2022-07-28T08:49:05.476Z,1014.31
2022-07-28T08:50:05.589Z,1014.31
2022-07-28T08:51:05.710Z,1014.28
2022-07-28T08:52:05.842Z,1014.23
2022-07-28T08:53:05.983Z,1014.24
2022-07-28T08:54:06.108Z,1014.29
2022-07-28T08:55:06.252Z,1014.26
2022-07-28T08:56:06.375Z,1014.30
2022-07-28T08:57:06.527Z,1014.28
2022-07-28T08:58:06.660Z,1014.27
2022-07-28T08:59:06.792Z,1014.31
2022-07-28T09:00:06.957Z,1014.35
2022-07-28T09:01:07.073Z,1014.40
2022-07-28T09:02:07.228Z,1014.46
2022-07-28T09:03:07.443Z,1014.39
2022-07-28T09:04:07.466Z,1014.30
2022-07-28T09:05:07.582Z,1014.29
2022-07-28T09:06:07.697Z,1014.30
2022-07-28T09:07:07.824Z,1014.35
2022-07-28T09:08:07.932Z,1014.32
2022-07-28T09:09:08.044Z,1014.37
2022-07-28T09:10:08.156Z,1014.31
2022-07-28T09:11:08.303Z,1014.33
2022-07-28T09:12:08.434Z,1014.32
2022-07-28T09:13:08.553Z,1014.27
2022-07-28T09:14:08.674Z,1014.17
2022-07-28T09:15:08.776Z,1014.28
2022-07-28T09:16:08.937Z,1014.23
2022-07-28T09:17:09.040Z,1014.26
2022-07-28T09:18:09.142Z,1014.29
2022-07-28T09:19:16.262Z,1014.28
2022-07-28T09:20:11.239Z,1014.32
2022-07-28T09:21:09.479Z,1014.37
2022-07-28T09:22:09.599Z,1014.38
2022-07-28T09:23:42.132Z,1014.25
2022-07-28T09:24:10.780Z,1014.32
2022-07-28T09:25:09.848Z,1014.30
2022-07-28T09:26:12.378Z,1014.26
2022-07-28T09:27:10.010Z,1014.29
2022-07-28T09:28:10.083Z,1014.21
2022-07-28T09:29:10.194Z,1014.21
2022-07-28T09:30:10.282Z,1014.24
2022-07-28T09:31:10.423Z,1014.24
2022-07-28T09:32:10.418Z,1014.27
2022-07-28T09:33:10.515Z,1014.22
2022-07-28T09:34:11.699Z,1014.16
2022-07-28T09:35:10.674Z,1014.21
2022-07-28T09:36:10.797Z,1014.13
2022-07-28T09:37:10.915Z,1014.13
2022-07-28T09:38:12.357Z,1014.20
2022-07-28T09:39:11.083Z,1014.22
2022-07-28T09:40:11.186Z,1014.13
2022-07-28T09:41:11.274Z,1014.13
2022-07-28T09:42:11.401Z,1014.16
2022-07-28T09:43:11.507Z,1014.16
2022-07-28T09:44:11.918Z,1014.20
2022-07-28T09:45:27.020Z,1014.24
2022-07-28T09:46:12.863Z,1014.14
2022-07-28T09:47:11.959Z,1014.11
2022-07-28T09:48:12.162Z,1014.21
2022-07-28T09:49:12.100Z,1014.32
2022-07-28T09:50:11.989Z,1014.26
2022-07-28T09:51:12.062Z,1014.24
2022-07-28T09:52:12.162Z,1014.23
2022-07-28T09:53:12.232Z,1014.19
2022-07-28T09:54:12.705Z,1014.01
2022-07-28T09:55:12.343Z,1014.05
2022-07-28T09:56:12.411Z,1014.14
2022-07-28T09:57:12.500Z,1014.14
2022-07-28T09:58:12.576Z,1014.07
2022-07-28T09:59:14.549Z,1014.11
2022-07-28T10:00:12.713Z,1014.15
2022-07-28T10:01:12.883Z,1014.16
2022-07-28T10:02:13.009Z,1014.07
2022-07-28T10:03:12.974Z,1014.09
2022-07-28T10:04:12.935Z,1014.16
2022-07-28T10:05:12.999Z,1014.07
2022-07-28T10:06:13.070Z,1014.10
2022-07-28T10:07:13.159Z,1014.06
2022-07-28T10:08:13.224Z,1014.11
2022-07-28T10:09:13.288Z,1014.07
2022-07-28T10:10:13.353Z,1014.13
2022-07-28T10:11:13.428Z,1014.10
2022-07-28T10:12:13.508Z,1014.12
2022-07-28T10:13:13.575Z,1014.11
2022-07-28T10:14:14.024Z,1014.06
2022-07-28T10:15:13.736Z,1014.12
2022-07-28T10:16:13.839Z,1014.10
2022-07-28T10:17:13.811Z,1014.17
2022-07-28T10:18:13.878Z,1013.83
2022-07-28T10:19:13.958Z,1013.95
2022-07-28T10:20:13.989Z,1014.07
2022-07-28T10:21:14.052Z,1014.08
2022-07-28T10:22:14.118Z,1013.76
2022-07-28T10:23:14.175Z,1013.82
2022-07-28T10:24:14.622Z,1013.76
2022-07-28T10:25:14.253Z,1013.70
2022-07-28T10:26:14.320Z,1013.71
2022-07-28T10:27:14.408Z,1013.94
2022-07-28T10:28:14.480Z,1013.94
2022-07-28T10:29:14.563Z,1013.96
2022-07-28T10:30:14.665Z,1014.02
2022-07-28T10:31:14.804Z,1014.04
2022-07-28T10:32:14.781Z,1014.07
2022-07-28T10:33:14.861Z,1014.08
2022-07-28T10:34:16.476Z,1014.08
2022-07-28T10:35:14.946Z,1013.98
2022-07-28T10:36:15.035Z,1014.00
2022-07-28T10:37:15.122Z,1013.98
2022-07-28T10:38:15.185Z,1013.91
2022-07-28T10:39:15.251Z,1013.96
2022-07-28T10:40:15.349Z,1013.98
2022-07-28T10:41:15.423Z,1014.01
2022-07-28T10:42:15.497Z,1013.99
2022-07-28T10:43:15.541Z,1013.95
2022-07-28T10:44:16.041Z,1013.95
2022-07-28T10:45:15.639Z,1013.82
2022-07-28T10:46:16.649Z,1013.72
2022-07-28T10:47:18.321Z,1013.54
2022-07-28T10:48:15.649Z,1013.48
2022-07-28T10:49:15.683Z,1013.53
2022-07-28T10:50:15.736Z,1013.70
2022-07-28T10:51:15.741Z,1013.61
2022-07-28T10:52:37.374Z,1013.68
2022-07-28T10:53:16.795Z,1013.59
2022-07-28T10:54:17.770Z,1013.52
2022-07-28T10:55:16.857Z,1013.57
2022-07-28T10:56:15.922Z,1013.87
2022-07-28T10:57:15.913Z,1013.90
2022-07-28T10:58:15.859Z,1013.87
2022-07-28T10:59:15.910Z,1013.93
2022-07-28T11:00:24.445Z,1013.91
2022-07-28T11:01:32.527Z,1013.89
2022-07-28T11:02:17.116Z,1013.72
2022-07-28T11:03:17.097Z,1013.78
2022-07-28T11:04:16.270Z,1013.49
2022-07-28T11:05:16.082Z,1013.72
2022-07-28T11:06:16.144Z,1013.52
2022-07-28T11:07:16.199Z,1013.89
2022-07-28T11:08:16.274Z,1013.88
2022-07-28T11:09:16.435Z,1013.88
2022-07-28T11:10:16.441Z,1013.90
2022-07-28T11:11:16.514Z,1013.80
2022-07-28T11:12:16.743Z,1013.82
2022-07-28T11:13:16.654Z,1013.80
2022-07-28T11:14:17.016Z,1013.81
2022-07-28T11:15:18.860Z,1013.80
2022-07-28T11:16:16.924Z,1013.72
2022-07-28T11:17:17.004Z,1013.71
2022-07-28T11:18:18.010Z,1013.70
2022-07-28T11:19:39.990Z,1013.69
2022-07-28T11:20:27.537Z,1013.66
2022-07-28T11:21:18.118Z,1013.72
2022-07-28T11:22:18.315Z,1013.72
2022-07-28T11:23:17.264Z,1013.74
2022-07-28T11:24:18.100Z,1013.62
2022-07-28T11:25:21.116Z,1013.58
2022-07-28T11:26:17.435Z,1013.61
2022-07-28T11:27:17.510Z,1013.62
2022-07-28T11:28:17.572Z,1013.63
2022-07-28T11:29:17.649Z,1013.69
2022-07-28T11:30:17.820Z,1013.65
2022-07-28T11:31:17.820Z,1013.70
2022-07-28T11:32:17.798Z,1013.66
2022-07-28T11:33:17.859Z,1013.65
2022-07-28T11:34:18.163Z,1013.63
2022-07-28T11:35:17.964Z,1013.64
2022-07-28T11:36:18.017Z,1013.61
2022-07-28T11:37:18.070Z,1013.56
2022-07-28T11:38:18.120Z,1013.48
2022-07-28T11:39:18.208Z,1013.40
2022-07-28T11:40:18.188Z,1013.39
2022-07-28T11:41:18.255Z,1013.35
2022-07-28T11:42:18.295Z,1013.38
2022-07-28T11:43:20.711Z,1013.35
2022-07-28T11:44:18.431Z,1013.42
2022-07-28T11:45:19.427Z,1013.38
2022-07-28T11:46:18.503Z,1013.41
2022-07-28T11:47:18.540Z,1013.37
2022-07-28T11:48:18.592Z,1013.43
2022-07-28T11:49:18.754Z,1013.38
2022-07-28T11:50:18.744Z,1013.38
2022-07-28T11:51:18.799Z,1013.38
2022-07-28T11:52:19.519Z,1013.42
2022-07-28T11:53:18.918Z,1013.36
2022-07-28T11:54:18.994Z,1013.34
2022-07-28T11:55:19.059Z,1013.31
2022-07-28T11:56:19.133Z,1013.33
2022-07-28T11:57:19.199Z,1013.35
2022-07-28T11:58:19.263Z,1013.37
2022-07-28T11:59:19.359Z,1013.35
2022-07-28T12:00:19.424Z,1013.31
2022-07-28T12:01:19.645Z,1013.36
2022-07-28T12:02:19.581Z,1013.34
2022-07-28T12:03:19.591Z,1013.36
2022-07-28T12:04:19.918Z,1013.39
2022-07-28T12:05:19.751Z,1013.29
2022-07-28T12:06:27.375Z,1013.33
2022-07-28T12:07:20.851Z,1013.38